Time;durP1;ratioP1;P1;durP2;ratioP2;P2;SDS_P1;SDS_P2;PMS_P1;PMS_P2;Temp;Humidity;BMP_temperature;BMP_pressure;BME280_temperature;BME280_humidity;BME280_pressure;Samples;Min_cycle;Max_cycle;Signal;HPM_P1;HPM_P2
2023/04/12 00:00:34;;;;;;;4.50;3.03;;;7.70;99.90;;;;;;5088992;28;20036;-33
2023/04/12 00:03:04;;;;;;;5.85;2.80;;;7.70;99.90;;;;;;5089628;28;20032;-34
2023/04/12 00:05:29;;;;;;;7.70;2.60;;;7.70;99.90;;;;;;5106759;28;20040;-34
2023/04/12 00:07:56;;;;;;;8.52;2.70;;;7.70;99.90;;;;;;5100048;28;20245;-34
2023/04/12 00:10:22;;;;;;;6.68;2.45;;;7.70;99.90;;;;;;5087532;28;20486;-34
2023/04/12 00:12:48;;;;;;;6.13;2.58;;;7.80;99.90;;;;;;5089021;28;20461;-34
2023/04/12 00:15:14;;;;;;;5.70;2.80;;;7.80;99.90;;;;;;5088710;28;20529;-34
2023/04/12 00:17:40;;;;;;;7.45;3.33;;;7.80;99.90;;;;;;5064994;28;20086;-34
2023/04/12 00:20:11;;;;;;;7.20;3.03;;;7.80;99.90;;;;;;5090261;28;20093;-34
2023/04/12 00:22:42;;;;;;;5.95;3.13;;;7.90;99.90;;;;;;5108822;28;20032;-34
2023/04/12 00:25:08;;;;;;;6.93;2.90;;;8.00;99.90;;;;;;5092219;28;20101;-34
2023/04/12 00:27:34;;;;;;;7.72;3.15;;;7.90;99.90;;;;;;5090441;28;20040;-34
2023/04/12 00:30:00;;;;;;;3.88;2.67;;;8.00;99.90;;;;;;5090515;28;20041;-34
2023/04/12 00:32:26;;;;;;;6.93;2.92;;;8.00;99.90;;;;;;5085868;28;20493;-34
2023/04/12 00:34:52;;;;;;;8.27;3.00;;;8.00;99.90;;;;;;5093830;28;20032;-34
2023/04/12 00:37:18;;;;;;;8.18;3.10;;;8.10;99.90;;;;;;5132909;22;20047;-84
2023/04/12 00:39:43;;;;;;;10.13;3.10;;;8.10;99.90;;;;;;5076562;28;20039;-84
2023/04/12 00:42:09;;;;;;;10.13;2.70;;;8.20;99.90;;;;;;5079409;28;20045;-84
2023/04/12 00:44:34;;;;;;;9.05;3.20;;;8.20;99.90;;;;;;5092534;28;20040;-84
2023/04/12 00:47:02;;;;;;;9.43;2.95;;;8.30;99.90;;;;;;5086900;28;20402;-84
2023/04/12 00:49:29;;;;;;;9.75;3.47;;;8.40;99.90;;;;;;5081616;28;20051;-84
2023/04/12 00:52:03;;;;;;;7.97;2.97;;;8.50;99.90;;;;;;5060571;28;20041;-83
2023/04/12 00:54:30;;;;;;;9.85;3.65;;;8.40;99.90;;;;;;5071860;28;20044;-84
2023/04/12 00:56:56;;;;;;;6.13;2.47;;;8.70;99.90;;;;;;5068987;28;20060;-83
2023/04/12 00:59:22;;;;;;;7.25;2.80;;;8.70;99.90;;;;;;5071338;28;20078;-83
2023/04/12 01:01:48;;;;;;;8.23;2.70;;;8.80;99.90;;;;;;5050268;28;20037;-83
2023/04/12 01:04:14;;;;;;;5.22;3.03;;;8.80;99.90;;;;;;5068952;28;20035;-83
2023/04/12 01:07:14;;;;;;;8.90;3.42;;;8.90;99.90;;;;;;5056796;28;20068;-83
2023/04/12 01:09:56;;;;;;;8.90;3.35;;;8.90;99.90;;;;;;5066454;28;20040;-83
2023/04/12 01:12:50;;;;;;;8.15;2.67;;;9.00;99.90;;;;;;5070514;28;20107;-83
2023/04/12 01:15:16;;;;;;;5.97;2.85;;;9.00;99.90;;;;;;5049376;28;20048;-82
2023/04/12 01:17:48;;;;;;;7.40;3.20;;;8.90;99.90;;;;;;5053344;28;20036;-83
2023/04/12 01:20:17;;;;;;;10.02;3.45;;;8.90;99.90;;;;;;5075285;28;20050;-83
2023/04/12 01:23:20;;;;;;;8.68;2.95;;;8.90;99.90;;;;;;5062514;28;20036;-83
2023/04/12 01:26:01;;;;;;;9.23;2.97;;;9.20;99.90;;;;;;5070492;28;20032;-83
2023/04/12 01:28:32;;;;;;;7.65;2.60;;;9.20;99.90;;;;;;5082115;28;20051;-83
2023/04/12 01:31:02;;;;;;;9.80;3.00;;;9.10;99.90;;;;;;5053636;28;20041;-83
2023/04/12 01:33:30;;;;;;;6.90;2.95;;;9.10;99.90;;;;;;5070800;28;20059;-83
2023/04/12 01:35:58;;;;;;;7.72;2.88;;;9.00;99.90;;;;;;5066290;28;20075;-83
2023/04/12 01:38:24;;;;;;;7.35;2.63;;;9.20;99.90;;;;;;5062919;28;20048;-84
2023/04/12 01:40:49;;;;;;;8.52;3.10;;;9.20;99.90;;;;;;5071510;28;20510;-83
2023/04/12 01:43:15;;;;;;;12.02;3.10;;;9.30;99.90;;;;;;5062358;28;20397;-83
2023/04/12 01:45:41;;;;;;;8.68;2.97;;;9.20;99.90;;;;;;5058112;28;20036;-83
2023/04/12 01:48:09;;;;;;;8.27;3.08;;;9.10;99.90;;;;;;5077657;28;20037;-83
2023/04/12 01:50:50;;;;;;;5.95;3.10;;;9.10;99.90;;;;;;5072326;28;20120;-83
2023/04/12 01:53:35;;;;;;;6.90;2.97;;;9.10;99.90;;;;;;5050311;28;20119;-83
2023/04/12 01:56:07;;;;;;;7.00;2.50;;;9.10;99.90;;;;;;5059956;28;20042;-83
2023/04/12 01:58:33;;;;;;;6.07;2.83;;;9.20;99.90;;;;;;5055126;28;20402;-83
2023/04/12 02:01:01;;;;;;;4.45;2.50;;;9.10;99.90;;;;;;5072226;28;20044;-83
2023/04/12 02:03:29;;;;;;;9.23;3.17;;;9.10;99.90;;;;;;5073618;28;20040;-84
2023/04/12 02:05:57;;;;;;;7.72;2.28;;;9.10;99.90;;;;;;5075799;28;20112;-84
2023/04/12 02:08:22;;;;;;;6.25;2.65;;;9.10;99.90;;;;;;5059237;28;20044;-84
2023/04/12 02:10:48;;;;;;;7.78;2.30;;;9.00;99.90;;;;;;5079322;28;20028;-81
2023/04/12 02:13:14;;;;;;;5.40;2.00;;;9.00;99.90;;;;;;5102088;28;20028;-82
2023/04/12 02:15:39;;;;;;;7.40;2.30;;;9.00;99.90;;;;;;5075878;28;20170;-83
2023/04/12 02:18:05;;;;;;;6.53;2.15;;;9.00;99.90;;;;;;5066295;28;20075;-84
2023/04/12 02:20:31;;;;;;;6.85;2.38;;;8.90;99.90;;;;;;5072381;28;20044;-84
2023/04/12 02:22:56;;;;;;;4.28;2.58;;;8.90;99.90;;;;;;5049730;28;20037;-84
2023/04/12 02:25:22;;;;;;;6.68;2.40;;;8.90;99.90;;;;;;5061709;28;20037;-84
2023/04/12 02:27:47;;;;;;;6.55;2.72;;;8.90;99.90;;;;;;5067792;28;20032;-83
2023/04/12 02:30:14;;;;;;;4.60;2.35;;;8.90;99.90;;;;;;5064662;28;20039;-84
2023/04/12 02:32:43;;;;;;;4.47;2.10;;;9.00;99.90;;;;;;5067422;28;20029;-83
2023/04/12 02:35:11;;;;;;;7.53;2.55;;;8.90;99.90;;;;;;5071584;28;20036;-84
2023/04/12 02:37:37;;;;;;;6.72;2.33;;;8.90;99.90;;;;;;5071300;28;20028;-84
2023/04/12 02:40:05;;;;;;;4.70;2.50;;;8.80;99.90;;;;;;5084996;28;20016;-82
2023/04/12 02:42:30;;;;;;;8.10;2.47;;;8.90;99.90;;;;;;5082932;28;20051;-84
2023/04/12 02:44:56;;;;;;;8.13;2.92;;;8.80;99.90;;;;;;5066283;28;20040;-84
2023/04/12 02:47:27;;;;;;;5.97;2.17;;;8.70;99.90;;;;;;5069180;28;20048;-83
2023/04/12 02:49:54;;;;;;;4.80;2.15;;;8.80;99.90;;;;;;5053749;28;20375;-83
2023/04/12 02:52:19;;;;;;;4.55;2.08;;;8.80;99.90;;;;;;5048943;28;20040;-84
2023/04/12 02:54:45;;;;;;;8.02;2.28;;;8.80;99.90;;;;;;5069057;28;20045;-84
2023/04/12 02:57:11;;;;;;;5.03;1.85;;;8.70;99.90;;;;;;5055242;28;20044;-84
2023/04/12 02:59:38;;;;;;;6.13;2.30;;;8.80;99.90;;;;;;5066542;28;20059;-84
2023/04/12 03:02:03;;;;;;;6.55;2.28;;;8.70;99.90;;;;;;5072068;28;20437;-84
2023/04/12 03:04:29;;;;;;;5.22;2.22;;;8.70;99.90;;;;;;5061901;28;20036;-84
2023/04/12 03:06:58;;;;;;;2.83;1.83;;;8.80;99.90;;;;;;5071460;28;20036;-83
2023/04/12 03:09:24;;;;;;;6.38;2.00;;;8.80;99.90;;;;;;5070760;28;20041;-84
2023/04/12 03:11:49;;;;;;;5.85;2.40;;;8.80;99.90;;;;;;5073856;28;20031;-85
2023/04/12 03:14:15;;;;;;;4.95;1.98;;;8.80;99.90;;;;;;5076041;28;20056;-83
2023/04/12 03:16:40;;;;;;;3.63;1.75;;;8.70;99.90;;;;;;5070587;28;20108;-84
2023/04/12 03:19:06;;;;;;;2.80;1.77;;;8.80;99.90;;;;;;5073320;28;20040;-84
2023/04/12 03:21:32;;;;;;;4.18;1.80;;;8.80;99.90;;;;;;5063858;28;20517;-84
2023/04/12 03:23:58;;;;;;;4.78;2.08;;;8.70;99.90;;;;;;5067448;28;20073;-84
2023/04/12 03:26:25;;;;;;;7.07;2.30;;;8.80;99.90;;;;;;5066361;28;20048;-85
2023/04/12 03:29:03;;;;;;;6.18;2.40;;;8.70;99.90;;;;;;5042726;28;20060;-85
2023/04/12 03:31:30;;;;;;;6.25;2.00;;;8.70;99.90;;;;;;5066061;28;20094;-84
2023/04/12 03:33:55;;;;;;;3.08;2.03;;;8.70;99.90;;;;;;5061993;28;20032;-83
2023/04/12 03:36:21;;;;;;;6.28;2.05;;;8.80;99.90;;;;;;5068206;28;20452;-84
2023/04/12 03:38:47;;;;;;;4.22;2.05;;;8.80;99.90;;;;;;5052789;28;20094;-84
2023/04/12 03:41:12;;;;;;;6.32;2.50;;;8.80;99.90;;;;;;5067956;28;20049;-84
2023/04/12 03:43:39;;;;;;;6.75;2.30;;;8.80;99.90;;;;;;5053163;28;20072;-84
2023/04/12 03:46:05;;;;;;;5.50;2.30;;;8.70;99.90;;;;;;5075397;28;20032;-84
2023/04/12 03:48:31;;;;;;;6.63;1.90;;;8.90;99.90;;;;;;5071542;28;20464;-84
2023/04/12 03:50:58;;;;;;;6.82;2.42;;;8.80;99.90;;;;;;5051633;28;20122;-84
2023/04/12 03:53:26;;;;;;;4.63;2.10;;;8.80;99.90;;;;;;5075204;28;20380;-83
2023/04/12 03:55:51;;;;;;;6.53;2.42;;;8.90;99.90;;;;;;5048993;28;20078;-84
2023/04/12 03:58:18;;;;;;;4.80;1.90;;;8.80;99.90;;;;;;5077509;28;20388;-84
2023/04/12 04:00:45;;;;;;;5.32;2.40;;;8.80;99.90;;;;;;5046941;28;20051;-84
2023/04/12 04:03:11;;;;;;;7.47;2.75;;;8.80;99.90;;;;;;5065085;28;20498;-84
2023/04/12 04:05:37;;;;;;;5.63;2.17;;;8.90;99.90;;;;;;5071748;28;20036;-83
2023/04/12 04:08:05;;;;;;;7.55;2.40;;;8.80;99.90;;;;;;5071030;28;20418;-84
2023/04/12 04:10:31;;;;;;;7.88;2.75;;;8.90;99.90;;;;;;5067439;28;20045;-85
2023/04/12 04:12:56;;;;;;;5.45;2.45;;;8.90;99.90;;;;;;5067002;28;20040;-83
2023/04/12 04:15:24;;;;;;;5.43;2.53;;;8.70;99.90;;;;;;5078559;28;20074;-83
2023/04/12 04:17:50;;;;;;;5.90;2.47;;;8.90;99.90;;;;;;5070372;28;20478;-84
2023/04/12 04:20:16;;;;;;;7.78;2.75;;;8.80;99.90;;;;;;5062584;28;20033;-84
2023/04/12 04:22:43;;;;;;;6.97;2.45;;;8.80;99.90;;;;;;5052625;28;20104;-83
2023/04/12 04:25:09;;;;;;;4.22;2.30;;;8.70;99.90;;;;;;5067915;28;20052;-83
2023/04/12 04:27:37;;;;;;;3.33;2.13;;;8.60;99.90;;;;;;5068077;28;20049;-84
2023/04/12 04:30:04;;;;;;;3.95;2.47;;;8.60;99.90;;;;;;5067438;28;20052;-84
2023/04/12 04:32:31;;;;;;;4.00;2.30;;;8.60;99.90;;;;;;5059578;28;20041;-84
2023/04/12 04:35:00;;;;;;;6.13;2.53;;;8.70;99.90;;;;;;5068413;28;20029;-84
2023/04/12 04:37:27;;;;;;;5.85;2.65;;;8.50;99.90;;;;;;5072905;28;20036;-84
2023/04/12 04:39:53;;;;;;;3.20;2.47;;;8.50;99.90;;;;;;5078265;28;20047;-84
2023/04/12 04:42:18;;;;;;;4.32;2.63;;;8.50;99.90;;;;;;5049780;28;20040;-84
2023/04/12 04:44:44;;;;;;;3.03;2.05;;;8.50;99.90;;;;;;5052067;28;20032;-84
2023/04/12 04:47:10;;;;;;;4.55;2.72;;;8.60;99.90;;;;;;5051177;28;20483;-84
2023/04/12 04:49:36;;;;;;;9.68;3.10;;;8.60;99.90;;;;;;5055639;28;20090;-84
2023/04/12 04:52:03;;;;;;;5.85;2.47;;;8.50;99.90;;;;;;5067106;28;20041;-84
2023/04/12 04:54:30;;;;;;;5.55;2.72;;;8.40;99.90;;;;;;5070471;28;20047;-84
2023/04/12 04:56:57;;;;;;;3.65;2.42;;;8.50;99.90;;;;;;5063332;28;20040;-84
2023/04/12 04:59:22;;;;;;;4.18;2.45;;;8.50;99.90;;;;;;5063804;28;20041;-84
2023/04/12 05:01:48;;;;;;;5.68;2.58;;;8.50;99.90;;;;;;5070756;28;20123;-84
2023/04/12 05:04:14;;;;;;;4.93;2.40;;;8.50;99.90;;;;;;5066162;28;20049;-84
2023/04/12 05:06:39;;;;;;;4.45;2.28;;;8.50;99.90;;;;;;5052749;28;20039;-84
2023/04/12 05:09:05;;;;;;;6.50;2.35;;;8.40;99.90;;;;;;5075427;28;20579;-83
2023/04/12 05:11:30;;;;;;;4.63;2.28;;;8.40;99.90;;;;;;5063724;28;20058;-84
2023/04/12 05:13:56;;;;;;;5.15;2.50;;;8.40;99.90;;;;;;5065485;28;20079;-84
2023/04/12 05:16:22;;;;;;;4.22;2.85;;;8.30;99.90;;;;;;5069416;28;20037;-84
2023/04/12 05:18:47;;;;;;;4.80;2.67;;;8.20;99.90;;;;;;5074857;28;20036;-83
2023/04/12 05:21:13;;;;;;;4.57;2.28;;;8.30;99.90;;;;;;5056141;28;20037;-83
2023/04/12 05:23:44;;;;;;;5.28;2.60;;;8.30;99.90;;;;;;5050613;28;20399;-83
2023/04/12 05:26:10;;;;;;;5.78;3.15;;;8.20;99.90;;;;;;5065462;28;20044;-83
2023/04/12 05:28:35;;;;;;;4.95;3.78;;;8.30;99.90;;;;;;5071228;28;20047;-83
2023/04/12 05:31:01;;;;;;;6.88;4.63;;;8.20;99.90;;;;;;5055172;28;20044;-83
2023/04/12 05:33:27;;;;;;;3.88;2.78;;;8.70;99.90;;;;;;5074221;28;20029;-83
2023/04/12 05:35:52;;;;;;;5.45;3.00;;;8.30;99.90;;;;;;5074616;28;20036;-83
2023/04/12 05:38:18;;;;;;;4.75;2.85;;;8.20;99.90;;;;;;5061699;28;20071;-83
2023/04/12 05:40:43;;;;;;;7.07;3.10;;;8.20;99.90;;;;;;5073278;28;20029;-83
2023/04/12 05:43:12;;;;;;;7.45;2.88;;;8.30;99.90;;;;;;5049181;28;20040;-83
2023/04/12 05:45:40;;;;;;;6.10;2.92;;;8.00;99.90;;;;;;5058551;28;20055;-83
2023/04/12 05:48:05;;;;;;;6.82;3.20;;;8.20;99.90;;;;;;5081488;28;20434;-83
2023/04/12 05:50:31;;;;;;;7.22;2.72;;;8.30;99.90;;;;;;5052851;28;20112;-83
2023/04/12 05:52:56;;;;;;;5.95;2.70;;;8.10;99.90;;;;;;5074664;28;20036;-83
2023/04/12 05:55:22;;;;;;;7.50;3.47;;;8.10;99.90;;;;;;5071201;28;20167;-83
2023/04/12 05:57:47;;;;;;;6.22;2.80;;;8.10;99.90;;;;;;5069037;28;20064;-83
2023/04/12 06:00:16;;;;;;;6.70;3.53;;;8.20;99.90;;;;;;5083585;28;20040;-83
2023/04/12 06:02:46;;;;;;;7.70;2.88;;;8.20;99.90;;;;;;5075179;28;20119;-83
2023/04/12 06:05:12;;;;;;;4.60;2.97;;;8.20;99.90;;;;;;5078286;28;20554;-83
2023/04/12 06:07:38;;;;;;;6.68;3.13;;;8.00;99.90;;;;;;5069452;28;20076;-83
2023/04/12 06:10:05;;;;;;;5.65;3.03;;;8.10;99.90;;;;;;5062357;28;20050;-85
2023/04/12 06:12:31;;;;;;;5.97;3.00;;;8.20;99.90;;;;;;5075167;28;20047;-83
2023/04/12 06:14:57;;;;;;;6.65;2.67;;;8.00;99.90;;;;;;5068967;28;20116;-83
2023/04/12 06:17:22;;;;;;;7.25;3.30;;;8.20;99.90;;;;;;5050225;28;20041;-83
2023/04/12 06:19:48;;;;;;;6.05;2.50;;;8.00;99.90;;;;;;5062598;28;20040;-83
2023/04/12 06:22:14;;;;;;;4.75;2.95;;;8.10;99.90;;;;;;5047861;28;20060;-84
2023/04/12 06:24:40;;;;;;;5.13;3.13;;;8.10;99.90;;;;;;5069143;28;20032;-84
2023/04/12 06:27:05;;;;;;;6.90;2.92;;;8.00;99.90;;;;;;5076263;28;20445;-82
2023/04/12 06:29:31;;;;;;;5.60;2.95;;;8.00;99.90;;;;;;5092843;28;20036;-83
2023/04/12 06:31:57;;;;;;;5.88;3.15;;;7.90;99.90;;;;;;5052727;28;20040;-84
2023/04/12 06:34:22;;;;;;;6.32;3.17;;;8.10;99.90;;;;;;5062387;28;20375;-84
2023/04/12 06:36:48;;;;;;;10.55;3.72;;;8.00;99.90;;;;;;5072694;28;20037;-84
2023/04/12 06:39:15;;;;;;;4.28;3.10;;;8.10;99.90;;;;;;5064132;28;20057;-84
2023/04/12 06:41:46;;;;;;;6.22;3.25;;;8.10;99.90;;;;;;5040600;28;20442;-84
2023/04/12 06:44:12;;;;;;;5.95;2.95;;;8.00;99.90;;;;;;5070701;28;20119;-84
2023/04/12 06:46:37;;;;;;;4.97;3.00;;;8.00;99.90;;;;;;5067244;28;20091;-84
2023/04/12 06:49:03;;;;;;;5.57;3.03;;;7.90;99.90;;;;;;5053964;28;20043;-84
2023/04/12 06:51:29;;;;;;;4.95;2.83;;;8.00;99.90;;;;;;5059731;28;20094;-84
2023/04/12 06:53:56;;;;;;;6.18;3.28;;;8.00;99.90;;;;;;5054109;28;20033;-84
2023/04/12 06:56:22;;;;;;;7.47;3.75;;;8.10;99.90;;;;;;5070179;28;20407;-84
2023/04/12 06:58:47;;;;;;;4.88;3.35;;;8.00;99.90;;;;;;5067295;28;20036;-85
2023/04/12 07:01:13;;;;;;;5.63;2.88;;;8.10;99.90;;;;;;5067830;28;20080;-84
2023/04/12 07:03:39;;;;;;;6.47;3.20;;;8.10;99.90;;;;;;5058687;28;20039;-85
2023/04/12 07:06:05;;;;;;;8.60;3.60;;;8.00;99.90;;;;;;5058814;28;20511;-84
2023/04/12 07:08:35;;;;;;;7.00;3.35;;;8.10;99.90;;;;;;5076651;28;20091;-84
2023/04/12 07:11:01;;;;;;;8.88;3.05;;;8.10;99.90;;;;;;5081108;28;20040;-84
2023/04/12 07:13:27;;;;;;;3.97;2.97;;;8.10;99.90;;;;;;5076108;28;20037;-84
2023/04/12 07:15:55;;;;;;;5.32;3.63;;;8.10;99.90;;;;;;5056032;28;20093;-84
2023/04/12 07:18:21;;;;;;;4.43;3.35;;;7.90;99.90;;;;;;5071477;28;20037;-84
2023/04/12 07:20:53;;;;;;;6.18;3.33;;;8.00;99.90;;;;;;5064977;28;20071;-84
2023/04/12 07:23:19;;;;;;;6.97;3.55;;;8.20;99.90;;;;;;5065807;28;20059;-84
2023/04/12 07:25:47;;;;;;;7.72;3.58;;;8.00;99.90;;;;;;5069169;28;20032;-84
2023/04/12 07:28:13;;;;;;;3.97;3.20;;;8.30;99.90;;;;;;5069947;28;20492;-84
2023/04/12 07:30:39;;;;;;;5.07;3.90;;;8.00;99.90;;;;;;5050922;28;20040;-84
2023/04/12 07:33:05;;;;;;;5.03;3.47;;;8.10;99.90;;;;;;5049340;28;20028;-84
2023/04/12 07:35:32;;;;;;;6.32;3.60;;;7.80;99.90;;;;;;5080914;28;20364;-84
2023/04/12 07:37:57;;;;;;;4.00;3.60;;;8.10;99.90;;;;;;5079406;28;20059;-85
2023/04/12 07:40:23;;;;;;;8.55;4.10;;;7.90;99.90;;;;;;5053188;28;20401;-84
2023/04/12 07:42:49;;;;;;;5.70;4.30;;;8.10;99.90;;;;;;5059824;28;20037;-85
2023/04/12 07:45:15;;;;;;;7.57;4.72;;;8.10;99.90;;;;;;5074246;28;20043;-85
2023/04/12 07:47:40;;;;;;;7.68;4.32;;;8.00;99.90;;;;;;5069088;28;20100;-85
2023/04/12 07:50:06;;;;;;;7.03;5.22;;;8.10;99.90;;;;;;5070489;28;20045;-84
2023/04/12 07:52:32;;;;;;;6.82;4.63;;;8.10;99.90;;;;;;5074734;28;20104;-85
2023/04/12 07:54:58;;;;;;;6.38;5.40;;;8.10;99.90;;;;;;5069180;28;20029;-85
2023/04/12 07:57:23;;;;;;;6.43;4.15;;;8.20;99.90;;;;;;5060305;28;20037;-85
2023/04/12 07:59:49;;;;;;;6.30;4.72;;;8.00;99.90;;;;;;5065159;28;20062;-85
2023/04/12 08:02:23;;;;;;;7.32;4.80;;;8.10;99.90;;;;;;5060863;28;20051;-85
2023/04/12 08:04:49;;;;;;;;;;;8.10;99.90;;;;;;5073995;28;20039;-84
2023/04/12 08:07:15;;;;;;;5.13;4.53;;;8.10;99.90;;;;;;5075860;28;19921;-84
2023/04/12 08:09:40;;;;;;;5.65;4.80;;;8.10;99.90;;;;;;5069184;28;20120;-84
2023/04/12 08:12:06;;;;;;;5.82;5.13;;;7.80;99.90;;;;;;5076963;28;20052;-84
2023/04/12 08:14:32;;;;;;;7.13;5.78;;;8.30;99.90;;;;;;5062939;28;20115;-85
2023/04/12 08:16:57;;;;;;;6.43;5.57;;;8.40;99.90;;;;;;5071618;28;20033;-85
2023/04/12 08:19:23;;;;;;;6.13;5.55;;;8.20;99.90;;;;;;5052309;28;20044;-85
2023/04/12 08:21:49;;;;;;;6.80;6.10;;;8.40;99.90;;;;;;5069537;28;20071;-85
2023/04/12 08:24:14;;;;;;;7.18;6.47;;;8.30;99.90;;;;;;5078847;28;20041;-85
2023/04/12 08:26:40;;;;;;;6.55;5.95;;;8.10;99.90;;;;;;5079690;28;20482;-85
2023/04/12 08:29:06;;;;;;;5.80;5.20;;;8.30;99.90;;;;;;5071554;28;20123;-85
2023/04/12 08:31:32;;;;;;;7.35;5.72;;;8.50;99.90;;;;;;5047927;28;20040;-85
2023/04/12 08:33:58;;;;;;;5.80;5.00;;;8.70;99.90;;;;;;5063692;28;20051;-85
2023/04/12 08:36:26;;;;;;;5.68;5.13;;;8.40;99.90;;;;;;5084877;28;20495;-85
2023/04/12 08:38:54;;;;;;;6.00;5.38;;;8.70;99.90;;;;;;5049487;28;20040;-85
2023/04/12 08:41:20;;;;;;;6.45;5.75;;;8.80;99.90;;;;;;5063813;28;20094;-85
2023/04/12 08:43:51;;;;;;;7.20;6.60;;;8.50;99.90;;;;;;5048196;28;20044;-85
2023/04/12 08:46:17;;;;;;;7.13;6.43;;;8.80;99.90;;;;;;5053127;28;20052;-85
2023/04/12 08:48:47;;;;;;;8.18;7.38;;;8.60;99.90;;;;;;5057832;28;20039;-84
2023/04/12 08:51:17;;;;;;;9.40;8.18;;;8.60;99.90;;;;;;5069330;28;20173;-85
2023/04/12 08:53:43;;;;;;;8.68;7.88;;;8.70;99.90;;;;;;5082008;28;20119;-85
2023/04/12 08:56:10;;;;;;;8.40;7.53;;;9.10;99.90;;;;;;5054979;28;20101;-85
2023/04/12 08:58:47;;;;;;;8.63;7.63;;;8.70;99.90;;;;;;5057850;28;20107;-84
2023/04/12 09:01:14;;;;;;;8.23;7.22;;;8.70;99.90;;;;;;5064008;28;20040;-85
2023/04/12 09:03:41;;;;;;;8.43;7.57;;;8.70;99.90;;;;;;5072413;28;20038;-85
2023/04/12 09:06:08;;;;;;;8.77;7.72;;;8.70;99.90;;;;;;5080110;28;20090;-85
2023/04/12 09:08:34;;;;;;;7.32;6.63;;;8.70;99.90;;;;;;5074915;28;20037;-85
2023/04/12 09:10:59;;;;;;;7.53;6.82;;;8.60;99.90;;;;;;5069749;28;20049;-85
2023/04/12 09:13:35;;;;;;;8.63;7.82;;;8.60;99.90;;;;;;5065553;28;20041;-84
2023/04/12 09:16:05;;;;;;;8.75;7.95;;;8.60;99.90;;;;;;5057117;28;20132;-85
2023/04/12 09:18:47;;;;;;;8.70;7.82;;;8.80;99.90;;;;;;5073622;28;20041;-84
2023/04/12 09:21:12;;;;;;;8.15;7.35;;;8.70;99.90;;;;;;5064863;28;20033;-84
2023/04/12 09:23:38;;;;;;;9.50;8.52;;;8.50;99.90;;;;;;5072612;28;20133;-84
2023/04/12 09:26:04;;;;;;;8.80;7.97;;;8.70;99.90;;;;;;5078289;28;20044;-84
2023/04/12 09:28:30;;;;;;;9.75;8.75;;;8.60;99.90;;;;;;5052560;28;20037;-85
2023/04/12 09:30:57;;;;;;;9.18;8.30;;;8.60;99.90;;;;;;5067723;28;20491;-85
2023/04/12 09:33:34;;;;;;;10.10;9.10;;;8.80;99.90;;;;;;5040749;28;20044;-85
2023/04/12 09:36:01;;;;;;;10.93;9.73;;;8.80;99.90;;;;;;5074967;28;20031;-85
2023/04/12 09:38:31;;;;;;;10.93;9.85;;;8.80;99.90;;;;;;5067803;28;20056;-85
2023/04/12 09:41:13;;;;;;;12.00;10.80;;;9.10;99.90;;;;;;5082550;28;20063;-85
2023/04/12 09:43:39;;;;;;;11.30;10.07;;;9.10;99.90;;;;;;5074913;28;20751;-85
2023/04/12 09:46:12;;;;;;;11.73;10.52;;;9.30;99.90;;;;;;5070017;28;20048;-84
2023/04/12 09:48:49;;;;;;;12.70;11.13;;;9.60;99.90;;;;;;5091362;28;20039;-84
2023/04/12 09:51:25;;;;;;;10.93;9.85;;;9.70;99.90;;;;;;5070411;28;20123;-85
2023/04/12 09:53:51;;;;;;;12.18;10.90;;;9.90;99.90;;;;;;5069836;28;20107;-85
2023/04/12 09:56:21;;;;;;;12.10;10.80;;;10.10;99.90;;;;;;5057172;28;20040;-85
2023/04/12 09:58:50;;;;;;;10.90;9.90;;;9.90;99.90;;;;;;5050872;28;20049;-85
2023/04/12 10:01:16;;;;;;;11.25;9.98;;;10.20;99.90;;;;;;5070963;28;20166;-85
2023/04/12 10:03:42;;;;;;;10.23;9.23;;;10.30;99.90;;;;;;5074043;28;20036;-85
2023/04/12 10:06:09;;;;;;;9.93;8.98;;;10.20;99.90;;;;;;5049995;28;20514;-85
2023/04/12 10:08:36;;;;;;;9.90;8.63;;;10.30;99.90;;;;;;5046504;28;20041;-84
2023/04/12 10:11:03;;;;;;;9.10;7.85;;;10.30;99.90;;;;;;5048015;28;20041;-85
2023/04/12 10:13:31;;;;;;;9.60;8.57;;;10.30;99.90;;;;;;5056084;28;20032;-86
2023/04/12 10:15:59;;;;;;;9.00;7.65;;;10.50;99.90;;;;;;5096172;28;20037;-84
2023/04/12 10:18:26;;;;;;;9.25;8.10;;;10.80;99.90;;;;;;5082682;28;20048;-85
2023/04/12 10:20:51;;;;;;;7.90;6.72;;;11.40;99.90;;;;;;5070582;28;20403;-85
2023/04/12 10:23:17;;;;;;;7.72;6.75;;;11.50;99.90;;;;;;5071653;28;20040;-85
2023/04/12 10:25:47;;;;;;;8.07;6.95;;;11.50;99.90;;;;;;5059266;28;20051;-86
2023/04/12 10:28:18;;;;;;;8.50;6.03;;;11.70;99.90;;;;;;5067387;28;20036;-85
2023/04/12 10:30:46;;;;;;;7.18;5.47;;;11.50;99.90;;;;;;5054019;28;20036;-85
2023/04/12 10:33:13;;;;;;;6.72;5.20;;;11.70;99.90;;;;;;5076098;28;20087;-86
2023/04/12 10:36:11;;;;;;;7.00;5.38;;;11.80;99.90;;;;;;5064765;28;20502;-85
2023/04/12 10:38:45;;;;;;;5.93;4.80;;;11.60;99.90;;;;;;5023698;28;20511;-85
2023/04/12 10:41:21;;;;;;;10.02;3.90;;;11.90;99.90;;;;;;5065897;28;20047;-85
2023/04/12 10:43:50;;;;;;;7.93;4.20;;;12.10;99.90;;;;;;5048429;28;20506;-86
2023/04/12 10:46:37;;;;;;;7.55;4.25;;;12.20;99.90;;;;;;5071377;28;20048;-86
2023/04/12 10:49:10;;;;;;;8.38;3.78;;;12.20;99.90;;;;;;5069068;28;20296;-85
2023/04/12 10:51:36;;;;;;;11.43;3.58;;;12.10;99.90;;;;;;5067438;28;20044;-86
2023/04/12 10:54:14;;;;;;;9.43;4.10;;;12.10;99.90;;;;;;5055240;28;20045;-85
2023/04/12 10:56:44;;;;;;;8.88;4.88;;;12.30;99.90;;;;;;5071221;28;20044;-86
2023/04/12 10:59:11;;;;;;;8.13;3.92;;;12.80;99.90;;;;;;5078797;28;20396;-85
2023/04/12 11:01:37;;;;;;;7.03;3.55;;;13.60;99.90;;;;;;5054212;28;20385;-86
2023/04/12 11:04:16;;;;;;;7.70;4.25;;;14.00;99.90;;;;;;5068564;28;20067;-86
2023/04/12 11:06:51;;;;;;;7.25;3.40;;;14.60;99.90;;;;;;5047719;28;20036;-86
2023/04/12 11:09:21;;;;;;;8.45;3.85;;;14.70;99.90;;;;;;5054862;28;20065;-86
2023/04/12 11:11:47;;;;;;;7.50;3.50;;;14.90;99.90;;;;;;5063549;28;20047;-86
2023/04/12 11:14:16;;;;;;;8.60;3.65;;;15.30;99.90;;;;;;5062041;28;20566;-86
2023/04/12 11:17:07;;;;;;;5.50;2.90;;;15.50;99.90;;;;;;5069361;28;20557;-86
2023/04/12 11:19:40;;;;;;;7.35;2.70;;;15.80;99.90;;;;;;5050910;28;20144;-86
2023/04/12 11:22:08;;;;;;;8.65;3.10;;;16.30;99.90;;;;;;5053929;28;20072;-86
2023/04/12 11:24:37;;;;;;;6.13;3.22;;;16.20;99.90;;;;;;5065261;28;20044;-86
2023/04/12 11:27:03;;;;;;;7.10;3.08;;;16.30;99.90;;;;;;5076467;28;20049;-86
2023/04/12 11:29:31;;;;;;;6.13;2.80;;;15.90;99.90;;;;;;5070667;28;20043;-86
2023/04/12 11:31:57;;;;;;;10.82;3.53;;;15.30;99.90;;;;;;5051687;28;20028;-86
2023/04/12 11:34:23;;;;;;;5.22;2.92;;;15.40;99.90;;;;;;5062510;28;20056;-86
2023/04/12 11:36:52;;;;;;;9.15;3.53;;;14.80;99.90;;;;;;5048075;28;20297;-86
2023/04/12 11:39:19;;;;;;;8.25;3.17;;;14.60;99.90;;;;;;5046568;28;20645;-85
2023/04/12 11:41:48;;;;;;;6.18;3.03;;;14.10;99.90;;;;;;5064990;28;20081;-85
2023/04/12 11:44:17;;;;;;;9.20;3.20;;;14.20;99.90;;;;;;5048255;28;20045;-87
2023/04/12 11:46:44;;;;;;;9.20;3.20;;;14.60;99.90;;;;;;5042270;28;20060;-86
2023/04/12 11:49:14;;;;;;;10.07;3.20;;;14.70;99.90;;;;;;5066953;28;20520;-86
2023/04/12 11:51:40;;;;;;;7.13;2.70;;;15.60;99.90;;;;;;5068517;28;20036;-86
2023/04/12 11:54:06;;;;;;;6.60;2.75;;;15.80;99.90;;;;;;5055694;28;20407;-86
2023/04/12 11:56:32;;;;;;;8.23;2.88;;;16.50;99.90;;;;;;5068725;28;20068;-86
2023/04/12 11:58:58;;;;;;;8.27;2.92;;;16.90;99.90;;;;;;5045059;28;20517;-86
2023/04/12 12:01:23;;;;;;;6.32;2.55;;;17.00;99.90;;;;;;5076419;28;20044;-86
2023/04/12 12:03:49;;;;;;;8.63;2.80;;;17.60;99.90;;;;;;5080008;28;20118;-87
2023/04/12 12:06:16;;;;;;;6.40;2.47;;;18.90;99.90;;;;;;5076569;28;20048;-86
2023/04/12 12:08:42;;;;;;;5.80;2.50;;;18.90;99.90;;;;;;5069400;28;20040;-87
2023/04/12 12:11:07;;;;;;;6.75;2.78;;;19.50;99.90;;;;;;5045531;28;20090;-87
2023/04/12 12:14:07;;;;;;;6.65;2.70;;;20.10;99.90;;;;;;5043686;28;20131;-87
2023/04/12 12:16:32;;;;;;;7.40;2.75;;;20.30;99.90;;;;;;5009424;28;20494;-87
2023/04/12 12:19:03;;;;;;;4.78;2.22;;;20.20;99.90;;;;;;5064205;28;20047;-86
2023/04/12 12:21:30;;;;;;;5.60;2.50;;;20.30;99.90;;;;;;5074368;28;20036;-87
2023/04/12 12:23:57;;;;;;;5.30;2.30;;;20.40;99.90;;;;;;5074040;28;20040;-87
2023/04/12 12:26:25;;;;;;;7.57;2.20;;;20.90;99.90;;;;;;5058940;28;20479;-87
2023/04/12 12:28:55;;;;;;;7.68;2.72;;;20.90;99.90;;;;;;5061648;28;20043;-87
2023/04/12 12:31:29;;;;;;;6.78;2.38;;;19.80;99.90;;;;;;5050196;28;20052;-87
2023/04/12 12:33:59;;;;;;;8.27;2.78;;;19.60;99.90;;;;;;5062086;28;20044;-86
2023/04/12 12:36:33;;;;;;;6.20;2.42;;;17.80;99.90;;;;;;5079433;28;20055;-87
2023/04/12 12:39:11;;;;;;;;;;;17.40;99.90;;;;;;5054404;28;20036;-86
2023/04/12 12:41:37;;;;;;;8.20;2.90;;;16.50;99.90;;;;;;5061066;28;19916;-86
2023/04/12 12:44:03;;;;;;;7.03;2.78;;;15.70;99.90;;;;;;5070809;28;20036;-86
2023/04/12 12:46:29;;;;;;;9.80;3.35;;;15.80;99.90;;;;;;5052677;28;20040;-86
2023/04/12 12:48:54;;;;;;;7.28;2.30;;;15.50;99.90;;;;;;5056317;28;20527;-86
2023/04/12 12:51:20;;;;;;;9.02;2.50;;;15.00;99.90;;;;;;5075818;28;20119;-86
2023/04/12 12:53:46;;;;;;;7.93;2.67;;;14.70;99.90;;;;;;5068133;28;20037;-86
2023/04/12 12:56:13;;;;;;;8.40;3.03;;;14.50;99.90;;;;;;5084568;28;20043;-86
2023/04/12 12:58:40;;;;;;;8.55;2.97;;;14.30;99.90;;;;;;5057494;28;20056;-87